πŸ“Š DonnΓ©es MΓ©tΓ©o - Bordeaux

Total mesures

14,356

TempΓ©rature moyenne

18.8Β°C

Temp. Min/Max

2.9Β° / 42.4Β°

HumiditΓ© moyenne

64.9%

Pression moyenne

1014.7 hPa
enregistrements
ID Date/Heure Temp (Β°C) HumiditΓ© (%) Pression (hPa) Tendance LuminositΓ© (lux) Situation
13056 17/08/2026 08:45 25.1 66.0 1,016.6 β†’ Stable 55,836 confortablement-chaud (approx.)
13055 17/08/2026 08:15 24.2 71.0 1,016.6 β†’ Stable 46,764 pluvieux-gris (approx.)
13054 17/08/2026 08:00 23.8 73.0 1,016.6 β†’ Stable 42,960 pluvieux-gris (approx.)
13053 17/08/2026 07:45 23.5 74.0 1,016.8 β†’ Stable 38,616 pluvieux-gris (approx.)
13052 17/08/2026 07:15 22.7 78.0 1,016.8 β†’ Stable 29,820 pluvieux-gris (approx.)
13051 17/08/2026 07:00 22.4 79.0 1,016.8 β†’ Stable 20,280 pluvieux-gris (approx.)
13050 17/08/2026 06:45 22.2 82.0 1,016.5 β†’ Stable 15,648 pluvieux-gris (approx.)
13049 17/08/2026 06:30 21.9 83.0 1,016.5 β†’ Stable 12,588 pluvieux-gris (approx.)
13048 17/08/2026 06:15 21.7 83.0 1,016.5 β†’ Stable 8,976 pluvieux-gris (approx.)
13047 17/08/2026 05:45 21.5 84.0 1,016.2 β†’ Stable 3,240 pluvieux-gris (approx.)
13046 17/08/2026 05:30 21.5 83.0 1,016.2 β†’ Stable 744 pluvieux-gris (approx.)
13045 17/08/2026 05:15 21.5 84.0 1,016.2 β†’ Stable 0 pluvieux-gris (approx.)
13044 17/08/2026 05:00 21.5 84.0 1,016.2 β†’ Stable 0 pluvieux-gris (approx.)
13043 17/08/2026 04:45 21.3 86.0 1,016.2 β†’ Stable 0 pluvieux-gris (approx.)
13042 17/08/2026 04:15 21.6 84.0 1,016.2 β†’ Stable 0 pluvieux-gris (approx.)
13041 17/08/2026 04:00 21.5 85.0 1,016.2 β†’ Stable 0 pluvieux-gris (approx.)
13040 17/08/2026 03:45 21.4 87.0 1,016.0 β†’ Stable 0 pluvieux-gris (approx.)
13039 17/08/2026 03:30 21.5 86.0 1,016.0 β†’ Stable 0 pluvieux-gris (approx.)
13038 17/08/2026 03:15 21.5 87.0 1,016.0 β†’ Stable 0 pluvieux-gris (approx.)
13037 17/08/2026 02:45 21.4 88.0 1,015.9 β†’ Stable 0 pluvieux-gris (approx.)
13036 17/08/2026 02:30 21.4 85.0 1,015.9 β†’ Stable 0 pluvieux-gris (approx.)
13035 17/08/2026 02:15 21.4 86.0 1,015.9 β†’ Stable 0 pluvieux-gris (approx.)
13034 17/08/2026 01:45 21.4 87.0 1,016.0 β†’ Stable 0 pluvieux-gris (approx.)
13033 17/08/2026 01:15 21.7 85.0 1,016.0 β†’ Stable 0 pluvieux-gris (approx.)
13032 17/08/2026 01:00 21.7 85.0 1,016.0 β†’ Stable 0 pluvieux-gris (approx.)
13031 17/08/2026 00:45 21.7 85.0 1,016.2 β†’ Stable 0 pluvieux-gris (approx.)
13030 17/08/2026 00:30 21.7 86.0 1,016.2 β†’ Stable 0 pluvieux-gris (approx.)
13029 17/08/2026 00:15 21.8 84.0 1,016.2 β†’ Stable 0 pluvieux-gris (approx.)
13028 17/08/2026 00:00 21.8 85.0 1,016.2 β†’ Stable 0 pluvieux-gris (approx.)
13027 16/08/2026 23:45 21.8 85.0 1,016.0 β†’ Stable 0 pluvieux-gris (approx.)
13026 16/08/2026 23:15 21.8 85.0 1,016.0 β†’ Stable 0 pluvieux-gris (approx.)
13025 16/08/2026 22:45 21.9 85.0 1,015.9 β†’ Stable 0 pluvieux-gris (approx.)
13024 16/08/2026 21:45 22.6 80.0 1,015.7 β†’ Stable 0 pluvieux-gris (approx.)
13023 16/08/2026 21:30 22.8 78.0 1,015.7 β†’ Stable 0 pluvieux-gris (approx.)
13022 16/08/2026 21:15 23.0 76.0 1,015.7 β†’ Stable 0 pluvieux-gris (approx.)
13021 16/08/2026 20:45 23.5 73.0 1,015.3 β†’ Stable 0 pluvieux-gris (approx.)
13020 16/08/2026 20:15 24.0 69.0 1,015.3 β†’ Stable 0 confortablement-chaud (approx.)
13019 16/08/2026 20:00 24.2 68.0 1,015.3 β†’ Stable 0 confortablement-chaud (approx.)
13018 16/08/2026 19:45 24.5 68.0 1,014.9 β†’ Stable 0 confortablement-chaud (approx.)
13017 16/08/2026 19:30 24.8 68.0 1,014.9 β†’ Stable 0 confortablement-chaud (approx.)
13016 16/08/2026 19:15 25.1 68.0 1,014.9 β†’ Stable 0 confortablement-chaud (approx.)
13015 16/08/2026 19:00 25.5 68.0 1,014.9 β†’ Stable 648 confortablement-chaud (approx.)
13014 16/08/2026 18:45 26.0 66.0 1,014.3 β†’ Stable 3,984 confortablement-chaud (approx.)
13013 16/08/2026 18:30 26.6 62.0 1,014.3 β†’ Stable 8,520 confortablement-chaud (approx.)
13012 16/08/2026 18:15 26.8 62.0 1,014.3 β†’ Stable 13,524 confortablement-chaud (approx.)
13011 16/08/2026 18:00 27.2 61.0 1,014.3 β†’ Stable 17,868 confortablement-chaud (approx.)
13010 16/08/2026 17:45 27.6 60.0 1,014.1 β†’ Stable 22,500 confortablement-chaud (approx.)
13009 16/08/2026 17:15 28.4 58.0 1,014.0 β†’ Stable 29,628 confortablement-chaud (approx.)
13008 16/08/2026 16:45 29.1 56.0 1,013.8 β†’ Stable 41,664 conditions-neutrales-ou-non-definies
13007 16/08/2026 16:15 29.4 55.0 1,013.8 β†’ Stable 50,556 conditions-neutrales-ou-non-definies
13006 16/08/2026 15:45 29.5 55.0 1,013.6 β†’ Stable 54,720 conditions-neutrales-ou-non-definies
13005 16/08/2026 15:30 29.5 55.0 1,013.6 β†’ Stable 57,684 conditions-neutrales-ou-non-definies
13004 16/08/2026 15:15 29.5 55.0 1,013.6 β†’ Stable 60,552 conditions-neutrales-ou-non-definies
13003 16/08/2026 14:45 29.9 53.0 1,013.9 β†’ Stable 69,072 conditions-neutrales-ou-non-definies
13002 16/08/2026 14:15 30.0 53.0 1,013.9 β†’ Stable 71,940 confortablement-chaud (approx.)
13001 16/08/2026 13:45 29.8 54.0 1,014.5 β†’ Stable 83,520 confortablement-chaud (approx.)
13000 16/08/2026 13:15 29.5 55.0 1,014.5 β†’ Stable 71,112 confortablement-chaud (approx.)
12999 16/08/2026 12:45 29.7 54.0 1,014.9 β†’ Stable 87,504 confortablement-chaud (approx.)
12998 16/08/2026 12:15 29.3 56.0 1,014.9 β†’ Stable 90,096 confortablement-chaud (approx.)
12997 16/08/2026 11:45 28.5 60.0 1,015.3 β†’ Stable 89,628 confortablement-chaud
12996 16/08/2026 11:15 27.8 62.0 1,015.3 β†’ Stable 90,180 confortablement-chaud
12995 16/08/2026 10:45 26.7 67.0 1,015.5 β†’ Stable 69,168 confortablement-chaud (approx.)
12994 16/08/2026 10:15 26.0 70.0 1,015.5 β†’ Stable 62,772 pluvieux-gris (approx.)
12993 16/08/2026 09:45 25.5 72.0 1,015.3 β†’ Stable 60,828 pluvieux-gris (approx.)
12992 16/08/2026 09:15 24.7 76.0 1,015.3 β†’ Stable 56,016 pluvieux-gris (approx.)
12991 16/08/2026 08:45 24.1 79.0 1,014.9 β†’ Stable 40,560 pluvieux-gris (approx.)
12990 16/08/2026 08:15 23.6 82.0 1,014.9 β†’ Stable 34,440 pluvieux-gris (approx.)
12989 16/08/2026 07:45 23.6 80.0 1,014.6 β†’ Stable 39,720 pluvieux-gris (approx.)
12988 16/08/2026 07:15 22.9 84.0 1,014.6 β†’ Stable 7,320 pluvieux-gris (approx.)
12987 16/08/2026 06:45 22.6 85.0 1,014.8 β†’ Stable 5,832 pluvieux-gris (approx.)
12986 16/08/2026 06:15 22.4 88.0 1,014.8 β†’ Stable 3,612 pluvieux-gris (approx.)
12985 16/08/2026 05:45 21.9 92.0 1,014.2 β†’ Stable 1,392 pluvieux-gris (approx.)
12984 16/08/2026 05:15 22.1 87.0 1,014.2 β†’ Stable 0 pluvieux-gris (approx.)
12983 16/08/2026 04:45 22.0 88.0 1,014.2 β†’ Stable 0 pluvieux-gris (approx.)
12982 16/08/2026 04:15 22.2 87.0 1,014.2 β†’ Stable 0 pluvieux-gris (approx.)
12981 16/08/2026 03:45 22.2 88.0 1,013.7 β†’ Stable 0 pluvieux-gris (approx.)
12980 16/08/2026 03:15 22.4 88.0 1,013.7 β†’ Stable 0 pluvieux-gris (approx.)
12979 16/08/2026 02:45 22.4 88.0 1,014.1 β†’ Stable 0 pluvieux-gris (approx.)
12978 16/08/2026 02:15 22.4 86.0 1,014.1 β†’ Stable 0 pluvieux-gris (approx.)
12977 16/08/2026 01:45 22.4 87.0 1,014.2 β†’ Stable 0 pluvieux-gris (approx.)
12976 16/08/2026 01:15 22.1 91.0 1,014.3 β†’ Stable 0 pluvieux-gris (approx.)
12975 16/08/2026 00:45 22.7 86.0 1,014.8 β†’ Stable 0 pluvieux-gris (approx.)
12974 16/08/2026 00:15 23.0 85.0 1,014.8 β†’ Stable 0 pluvieux-gris (approx.)
12973 15/08/2026 23:45 23.0 86.0 1,015.4 β†’ Stable 0 pluvieux-gris (approx.)
12972 15/08/2026 23:15 24.4 78.0 1,015.4 β†’ Stable 0 pluvieux-gris (approx.)
12971 15/08/2026 22:45 23.9 80.0 1,016.3 β†’ Stable 0 pluvieux-gris (approx.)
12970 15/08/2026 22:15 23.0 74.0 1,016.3 β†’ Stable 0 pluvieux-gris (approx.)
12969 15/08/2026 21:45 23.4 70.0 1,014.3 β†’ Stable 0 pluvieux-gris (approx.)
12968 15/08/2026 21:15 24.1 77.0 1,014.3 β†’ Stable 0 pluvieux-gris (approx.)
12967 15/08/2026 20:45 24.7 74.0 1,013.2 β†’ Stable 0 pluvieux-gris (approx.)
12966 15/08/2026 20:15 25.3 70.0 1,013.2 β†’ Stable 0 pluvieux-gris (approx.)
12965 15/08/2026 19:45 25.7 68.0 1,012.1 β†’ Stable 0 confortablement-chaud (approx.)
12964 15/08/2026 19:15 26.1 69.0 1,012.0 β†’ Stable 0 confortablement-chaud (approx.)
12963 15/08/2026 18:45 26.7 66.0 1,011.7 β†’ Stable 4,260 confortablement-chaud (approx.)
12962 15/08/2026 18:15 27.9 62.0 1,011.7 β†’ Stable 13,428 confortablement-chaud (approx.)
12961 15/08/2026 17:45 29.2 58.0 1,011.4 β†’ Stable 22,872 conditions-neutrales-ou-non-definies
12960 15/08/2026 17:15 29.9 55.0 1,011.4 β†’ Stable 32,316 conditions-neutrales-ou-non-definies
12959 15/08/2026 16:45 31.3 49.0 1,011.1 β†’ Stable 43,428 conditions-neutrales-ou-non-definies
12958 15/08/2026 16:15 33.2 42.0 1,010.7 β†’ Stable 50,556 conditions-neutrales-ou-non-definies
12957 15/08/2026 15:45 33.2 43.0 1,011.2 β†’ Stable 63,060 conditions-neutrales-ou-non-definies